createdAt,value
2022-09-01T00:01:49.838Z,4.90
2022-09-01T00:04:21.465Z,1.60
2022-09-01T00:06:50.212Z,2.50
2022-09-01T00:09:20.523Z,4.07
2022-09-01T00:11:52.996Z,3.13
2022-09-01T00:14:30.335Z,1.88
2022-09-01T00:16:59.693Z,2.72
2022-09-01T00:19:29.559Z,4.03
2022-09-01T00:21:58.079Z,3.35
2022-09-01T00:24:26.614Z,1.50
2022-09-01T00:26:55.181Z,2.67
2022-09-01T00:29:24.994Z,5.10
2022-09-01T00:31:52.874Z,9.10
2022-09-01T00:34:21.442Z,5.07
2022-09-01T00:36:50.544Z,2.60
2022-09-01T00:39:18.283Z,2.67
2022-09-01T00:41:47.292Z,1.77
2022-09-01T00:44:18.435Z,2.95
2022-09-01T00:46:54.886Z,1.98
2022-09-01T00:49:29.714Z,2.30
2022-09-01T00:52:07.995Z,6.18
2022-09-01T00:57:06.974Z,2.97
2022-09-01T00:59:37.270Z,1.52
2022-09-01T01:02:05.059Z,1.30
2022-09-01T01:04:32.793Z,2.83
2022-09-01T01:07:03.059Z,1.38
2022-09-01T01:09:37.117Z,3.58
2022-09-01T01:12:07.095Z,4.25
2022-09-01T01:14:40.053Z,2.35
2022-09-01T01:17:08.388Z,2.17
2022-09-01T01:20:00.626Z,2.42
2022-09-01T01:22:58.414Z,6.00
2022-09-01T01:25:28.038Z,3.92
2022-09-01T01:28:05.952Z,4.45
2022-09-01T01:30:36.898Z,3.15
2022-09-01T01:33:05.705Z,3.20
2022-09-01T01:35:34.884Z,6.57
2022-09-01T01:38:07.965Z,1.45
2022-09-01T01:40:37.817Z,6.28
2022-09-01T01:43:06.654Z,2.92
2022-09-01T01:45:34.689Z,1.65
2022-09-01T01:48:08.664Z,1.58
2022-09-01T01:50:38.369Z,2.08
2022-09-01T01:53:11.403Z,3.30
2022-09-01T01:55:43.627Z,2.83
2022-09-01T01:58:12.526Z,1.67
2022-09-01T02:00:42.923Z,3.78
2022-09-01T02:03:12.799Z,2.65
2022-09-01T02:05:41.258Z,4.53
2022-09-01T02:08:11.805Z,1.88
2022-09-01T02:10:45.030Z,4.00
2022-09-01T02:13:16.820Z,4.15
2022-09-01T02:15:47.174Z,2.03
2022-09-01T02:18:27.924Z,3.28
2022-09-01T02:20:58.807Z,1.10
2022-09-01T02:23:26.705Z,3.40
2022-09-01T02:26:15.521Z,2.40
2022-09-01T02:28:45.397Z,1.73
2022-09-01T02:31:13.848Z,1.85
2022-09-01T02:33:44.116Z,4.03
2022-09-01T02:36:15.287Z,3.17
2022-09-01T02:38:46.662Z,4.53
2022-09-01T02:41:23.732Z,1.25
2022-09-01T02:43:51.818Z,2.67
2022-09-01T02:46:20.332Z,2.53
2022-09-01T02:48:51.528Z,1.88
2022-09-01T02:51:25.366Z,2.03
2022-09-01T02:53:54.029Z,1.58
2022-09-01T02:56:27.392Z,1.60
2022-09-01T02:58:55.693Z,2.88
2022-09-01T03:01:31.109Z,2.30
2022-09-01T03:04:00.667Z,2.47
2022-09-01T03:06:31.455Z,3.50
2022-09-01T03:09:00.646Z,5.47
2022-09-01T03:11:31.592Z,3.45
2022-09-01T03:13:59.833Z,1.73
2022-09-01T03:16:27.706Z,3.60
2022-09-01T03:18:55.434Z,1.65
2022-09-01T03:21:23.627Z,1.65
2022-09-01T03:23:52.763Z,4.60
2022-09-01T03:26:22.434Z,2.35
2022-09-01T03:28:52.587Z,3.95
2022-09-01T03:31:21.162Z,5.68
2022-09-01T03:33:51.048Z,2.40
2022-09-01T03:36:20.152Z,3.65
2022-09-01T03:38:49.652Z,3.38
2022-09-01T03:41:19.373Z,1.77
2022-09-01T03:43:48.288Z,2.00
2022-09-01T03:46:21.784Z,4.07
2022-09-01T03:48:51.694Z,4.00
2022-09-01T03:51:22.880Z,1.75
2022-09-01T03:53:54.467Z,1.45
2022-09-01T03:56:24.646Z,3.88
2022-09-01T03:58:52.902Z,1.52
2022-09-01T04:01:22.178Z,3.55
2022-09-01T04:03:52.210Z,6.18
2022-09-01T04:06:20.653Z,2.80
2022-09-01T04:08:48.838Z,2.55
2022-09-01T04:11:20.457Z,2.33
2022-09-01T04:13:48.209Z,1.75
2022-09-01T04:16:41.517Z,3.08
2022-09-01T04:19:20.039Z,3.35
2022-09-01T04:21:50.239Z,3.65
2022-09-01T04:24:19.040Z,3.50
2022-09-01T04:26:49.657Z,2.03
2022-09-01T04:29:19.368Z,3.28
2022-09-01T04:31:53.631Z,6.22
2022-09-01T04:34:22.407Z,8.02
2022-09-01T04:36:54.599Z,1.35
2022-09-01T04:39:22.994Z,4.82
2022-09-01T04:41:51.198Z,1.95
2022-09-01T04:44:20.115Z,1.77
2022-09-01T04:46:50.812Z,2.63
2022-09-01T04:49:22.120Z,2.88
2022-09-01T04:51:53.980Z,4.00
2022-09-01T04:54:23.358Z,1.77
2022-09-01T04:56:52.406Z,3.72
2022-09-01T04:59:22.079Z,2.00
2022-09-01T05:01:54.319Z,2.85
2022-09-01T05:04:24.450Z,2.53
2022-09-01T05:06:55.974Z,6.05
2022-09-01T05:09:25.158Z,3.83
2022-09-01T05:11:53.146Z,2.92
2022-09-01T05:14:23.001Z,2.85
2022-09-01T05:16:53.973Z,3.47
2022-09-01T05:19:24.839Z,2.40
2022-09-01T05:21:58.179Z,4.10
2022-09-01T05:24:30.175Z,3.70
2022-09-01T05:26:58.978Z,6.50
2022-09-01T05:29:27.776Z,2.42
2022-09-01T05:31:57.475Z,2.33
2022-09-01T05:34:27.454Z,2.20
2022-09-01T05:36:58.118Z,4.28
2022-09-01T05:39:26.687Z,3.75
2022-09-01T05:41:54.684Z,4.47
2022-09-01T05:44:23.546Z,4.97
2022-09-01T05:46:52.825Z,2.33
2022-09-01T05:49:21.898Z,3.22
2022-09-01T05:51:52.252Z,5.07
2022-09-01T05:54:23.207Z,2.25
2022-09-01T05:56:53.523Z,3.92
2022-09-01T05:59:24.864Z,5.43
2022-09-01T06:01:54.221Z,2.83
2022-09-01T06:04:25.516Z,5.10
2022-09-01T06:07:07.036Z,6.32
2022-09-01T06:09:39.199Z,3.92
2022-09-01T06:12:07.251Z,4.63
2022-09-01T06:14:35.099Z,4.97
2022-09-01T06:17:03.290Z,4.32
2022-09-01T06:19:37.253Z,2.17
2022-09-01T06:22:05.522Z,2.03
2022-09-01T06:24:33.270Z,6.63
2022-09-01T06:27:01.142Z,5.10
2022-09-01T06:29:31.285Z,3.67
2022-09-01T06:32:02.376Z,3.97
2022-09-01T06:34:30.308Z,3.85
2022-09-01T06:36:59.826Z,9.73
2022-09-01T06:39:27.513Z,3.95
2022-09-01T06:41:56.068Z,4.63
2022-09-01T06:44:24.607Z,4.53
2022-09-01T06:46:53.514Z,4.18
2022-09-01T06:49:23.559Z,6.43
2022-09-01T06:51:51.821Z,4.28
2022-09-01T06:54:21.662Z,7.32
2022-09-01T06:56:51.505Z,3.58
2022-09-01T06:59:20.822Z,4.68
2022-09-01T07:01:51.376Z,4.25
2022-09-01T07:04:22.106Z,4.60
2022-09-01T07:07:53.057Z,5.35
2022-09-01T07:12:32.009Z,5.20
2022-09-01T07:17:50.264Z,3.55
2022-09-01T07:20:26.806Z,5.78
2022-09-01T07:23:04.137Z,3.83
2022-09-01T07:26:02.065Z,5.82
2022-09-01T07:28:39.907Z,4.13
2022-09-01T07:39:53.407Z,6.85
2022-09-01T07:45:29.135Z,6.85
2022-09-01T07:48:00.099Z,5.15
2022-09-01T07:53:18.362Z,8.13
2022-09-01T07:55:46.769Z,5.05
2022-09-01T07:58:15.815Z,6.20
2022-09-01T08:00:47.307Z,8.88
2022-09-01T08:03:15.505Z,12.07
2022-09-01T08:05:43.517Z,6.00
2022-09-01T08:08:19.153Z,5.40
2022-09-01T08:10:49.437Z,5.40
2022-09-01T08:13:22.285Z,5.70
2022-09-01T08:18:53.339Z,8.45
2022-09-01T08:21:23.462Z,7.75
2022-09-01T08:23:51.771Z,5.20
2022-09-01T08:26:21.953Z,4.72
2022-09-01T08:28:58.467Z,6.38
2022-09-01T08:34:00.063Z,8.50
2022-09-01T08:36:27.856Z,4.88
2022-09-01T08:38:55.561Z,5.47
2022-09-01T08:41:37.180Z,8.90
2022-09-01T08:44:15.398Z,10.77
2022-09-01T08:46:44.986Z,8.60
2022-09-01T08:49:25.311Z,7.05
2022-09-01T08:52:00.882Z,7.35
2022-09-01T08:54:38.052Z,8.75
2022-09-01T08:57:09.888Z,13.68
2022-09-01T08:59:39.245Z,8.93
2022-09-01T09:02:21.464Z,12.68
2022-09-01T09:05:00.816Z,13.95
2022-09-01T09:07:44.371Z,10.80
2022-09-01T09:10:18.922Z,19.65
2022-09-01T09:13:06.522Z,9.70
2022-09-01T09:15:43.642Z,13.55
2022-09-01T09:18:36.027Z,12.48
2022-09-01T09:21:13.043Z,14.98
2022-09-01T09:23:45.255Z,11.07
2022-09-01T09:26:16.613Z,11.43
2022-09-01T09:28:49.965Z,11.48
2022-09-01T09:31:30.848Z,12.75
2022-09-01T09:33:59.781Z,10.55
2022-09-01T09:36:33.852Z,7.45
2022-09-01T09:39:10.866Z,15.23
2022-09-01T09:41:39.961Z,9.00
2022-09-01T09:44:18.811Z,7.20
2022-09-01T09:46:48.872Z,9.15
2022-09-01T09:49:34.627Z,9.02
2022-09-01T09:52:17.747Z,8.85
2022-09-01T09:55:01.546Z,8.48
2022-09-01T09:57:31.284Z,9.68
2022-09-01T10:00:03.493Z,9.52
2022-09-01T10:02:36.087Z,7.22
2022-09-01T10:05:25.185Z,9.23
2022-09-01T10:07:53.923Z,8.77
2022-09-01T10:10:37.693Z,10.30
2022-09-01T10:13:09.193Z,8.50
2022-09-01T10:15:38.046Z,8.18
2022-09-01T10:18:20.505Z,7.43
2022-09-01T10:20:55.306Z,5.47
2022-09-01T10:23:27.252Z,6.28
2022-09-01T10:26:05.917Z,4.97
2022-09-01T10:28:35.776Z,6.95
2022-09-01T10:31:05.299Z,4.18
2022-09-01T10:33:37.903Z,4.68
2022-09-01T10:36:08.375Z,8.07
2022-09-01T10:38:36.449Z,10.20
2022-09-01T10:41:14.932Z,5.22
2022-09-01T10:43:45.067Z,6.45
2022-09-01T10:46:50.536Z,6.63
2022-09-01T10:50:01.462Z,7.00
2022-09-01T10:53:02.179Z,6.65
2022-09-01T10:55:41.315Z,7.22
2022-09-01T11:02:35.237Z,5.25
2022-09-01T11:05:18.891Z,6.45
2022-09-01T11:08:14.660Z,4.97
2022-09-01T11:10:44.556Z,6.32
2022-09-01T11:13:32.907Z,4.97
2022-09-01T11:19:38.877Z,5.32
2022-09-01T11:22:29.442Z,5.07
2022-09-01T11:25:13.840Z,6.93
2022-09-01T11:28:02.466Z,3.28
2022-09-01T11:30:50.568Z,6.28
2022-09-01T11:33:43.322Z,3.67
2022-09-01T11:36:20.420Z,5.32
2022-09-01T11:38:51.485Z,7.13
2022-09-01T11:41:28.974Z,3.67
2022-09-01T11:43:59.290Z,4.55
2022-09-01T11:46:30.227Z,5.63
2022-09-01T11:48:59.045Z,4.90
2022-09-01T11:51:26.953Z,3.75
2022-09-01T11:54:01.592Z,3.63
2022-09-01T11:56:30.181Z,3.85
2022-09-01T11:58:59.247Z,4.93
2022-09-01T12:01:34.636Z,2.92
2022-09-01T12:04:22.274Z,4.50
2022-09-01T12:06:55.305Z,4.47
2022-09-01T12:09:23.509Z,5.47
2022-09-01T12:11:52.749Z,4.95
2022-09-01T12:14:23.894Z,4.43
2022-09-01T12:17:00.144Z,4.30
2022-09-01T12:19:31.270Z,10.32
2022-09-01T12:22:03.112Z,2.08
2022-09-01T12:24:35.019Z,4.65
2022-09-01T12:27:03.232Z,3.20
2022-09-01T12:29:33.219Z,2.15
2022-09-01T12:32:02.406Z,4.35
2022-09-01T12:34:40.235Z,4.50
2022-09-01T12:37:23.076Z,4.20
2022-09-01T12:39:52.821Z,3.53
2022-09-01T12:42:27.216Z,2.10
2022-09-01T12:44:58.531Z,7.05
2022-09-01T12:47:50.387Z,2.97
2022-09-01T12:50:44.785Z,5.18
2022-09-01T12:53:19.707Z,3.03
2022-09-01T12:55:59.929Z,2.25
2022-09-01T12:58:30.490Z,2.03
2022-09-01T13:01:03.935Z,2.17
2022-09-01T13:03:34.513Z,2.88
2022-09-01T13:06:04.596Z,2.22
2022-09-01T13:08:34.907Z,3.55
2022-09-01T13:11:05.745Z,2.90
2022-09-01T13:13:35.300Z,3.58
2022-09-01T13:16:08.524Z,5.80
2022-09-01T13:19:10.654Z,2.28
2022-09-01T13:21:24.489Z,4.50
2022-09-01T13:23:52.606Z,2.42
2022-09-01T13:26:20.343Z,1.77
2022-09-01T13:28:48.043Z,2.78
2022-09-01T13:31:32.889Z,2.45
2022-09-01T13:34:10.898Z,2.10
2022-09-01T13:36:52.492Z,3.03
2022-09-01T13:39:21.074Z,2.95
2022-09-01T13:41:49.304Z,4.63
2022-09-01T13:44:18.454Z,4.30
2022-09-01T13:49:45.019Z,6.60
2022-09-01T13:52:23.525Z,3.55
2022-09-01T13:54:51.302Z,6.57
2022-09-01T13:57:19.005Z,6.68
2022-09-01T13:59:46.760Z,5.25
2022-09-01T14:02:16.144Z,4.13
2022-09-01T14:04:44.248Z,5.20
2022-09-01T14:07:12.006Z,4.70
2022-09-01T14:09:39.753Z,5.72
2022-09-01T14:12:07.730Z,7.50
2022-09-01T14:17:24.716Z,6.28
2022-09-01T14:19:52.422Z,7.45
2022-09-01T14:22:20.194Z,5.60
2022-09-01T14:24:47.926Z,5.35
2022-09-01T14:27:16.006Z,10.07
2022-09-01T14:32:10.328Z,5.55
2022-09-01T14:34:39.379Z,6.38
2022-09-01T14:37:07.308Z,3.67
2022-09-01T14:39:35.094Z,5.78
2022-09-01T14:42:06.804Z,8.18
2022-09-01T14:44:37.694Z,4.95
2022-09-01T14:47:06.707Z,5.75
2022-09-01T14:49:41.634Z,5.90
2022-09-01T14:52:11.241Z,4.75
2022-09-01T14:54:42.054Z,6.13
2022-09-01T14:59:57.818Z,4.80
2022-09-01T15:02:26.083Z,4.45
2022-09-01T15:04:55.136Z,6.68
2022-09-01T15:07:22.908Z,8.32
2022-09-01T15:09:50.802Z,6.88
2022-09-01T15:12:19.331Z,6.82
2022-09-01T15:14:47.058Z,6.72
2022-09-01T15:17:14.822Z,7.03
2022-09-01T15:19:42.678Z,4.80
2022-09-01T15:22:14.488Z,8.57
2022-09-01T15:24:42.326Z,7.13
2022-09-01T15:27:11.417Z,9.45
2022-09-01T15:29:46.233Z,9.80
2022-09-01T15:32:25.671Z,7.25
2022-09-01T15:34:55.960Z,6.65
2022-09-01T15:37:25.259Z,10.63
2022-09-01T15:39:53.012Z,7.00
2022-09-01T15:42:21.843Z,5.30
2022-09-01T15:44:49.590Z,9.07
2022-09-01T15:47:17.552Z,6.35
2022-09-01T15:49:45.286Z,8.65
2022-09-01T15:52:12.995Z,8.50
2022-09-01T15:54:41.979Z,7.38
2022-09-01T15:57:09.661Z,8.65
2022-09-01T15:59:40.073Z,10.18
2022-09-01T16:02:08.475Z,7.97
2022-09-01T16:04:36.335Z,5.45
2022-09-01T16:07:04.650Z,9.23
2022-09-01T16:09:32.585Z,5.53
2022-09-01T16:12:01.621Z,8.82
2022-09-01T16:14:32.045Z,7.15
2022-09-01T16:17:04.776Z,8.23
2022-09-01T16:19:49.010Z,7.53
2022-09-01T16:22:23.614Z,5.85
2022-09-01T16:24:54.108Z,6.97
2022-09-01T16:27:27.705Z,11.02
2022-09-01T16:29:57.750Z,5.72
2022-09-01T16:32:27.094Z,7.35
2022-09-01T16:34:54.802Z,6.55
2022-09-01T16:37:41.545Z,7.28
2022-09-01T16:42:57.946Z,4.55
2022-09-01T16:45:42.283Z,5.18
2022-09-01T16:48:19.023Z,6.78
2022-09-01T16:50:55.569Z,6.40
2022-09-01T16:53:44.835Z,6.65
2022-09-01T16:56:15.716Z,4.43
2022-09-01T16:58:51.936Z,6.78
2022-09-01T17:03:59.736Z,4.65
2022-09-01T17:06:32.104Z,4.63
2022-09-01T17:09:08.217Z,5.18
2022-09-01T17:11:49.115Z,5.75
2022-09-01T17:14:25.498Z,5.30
2022-09-01T17:16:57.127Z,4.18
2022-09-01T17:19:28.318Z,6.53
2022-09-01T17:22:03.629Z,6.15
2022-09-01T17:24:36.771Z,4.80
2022-09-01T17:27:12.590Z,5.25
2022-09-01T17:29:45.031Z,5.32
2022-09-01T17:32:30.900Z,5.35
2022-09-01T17:35:13.214Z,8.32
2022-09-01T17:37:50.892Z,4.07
2022-09-01T17:40:23.206Z,5.32
2022-09-01T17:42:58.024Z,6.75
2022-09-01T17:45:33.261Z,4.15
2022-09-01T17:48:09.039Z,6.10
2022-09-01T17:50:50.660Z,4.15
2022-09-01T17:53:33.581Z,7.35
2022-09-01T17:56:04.666Z,4.93
2022-09-01T17:58:46.130Z,4.15
2022-09-01T18:01:25.268Z,4.93
2022-09-01T18:04:15.146Z,4.75
2022-09-01T18:06:52.458Z,3.80
2022-09-01T18:09:25.457Z,3.97
2022-09-01T18:11:58.919Z,5.45
2022-09-01T18:14:35.359Z,4.50
2022-09-01T18:17:11.302Z,3.13
2022-09-01T18:19:41.189Z,3.50
2022-09-01T18:22:15.415Z,3.25
2022-09-01T18:24:51.257Z,2.83
2022-09-01T18:27:19.252Z,3.08
2022-09-01T18:29:52.189Z,4.05
2022-09-01T18:32:34.135Z,3.88
2022-09-01T18:35:24.091Z,3.08
2022-09-01T18:38:07.506Z,3.90
2022-09-01T18:40:44.122Z,2.13
2022-09-01T18:43:19.204Z,3.00
2022-09-01T18:45:54.335Z,4.13
2022-09-01T18:48:38.604Z,3.80
2022-09-01T18:51:16.566Z,2.75
2022-09-01T18:53:49.339Z,6.20
2022-09-01T18:56:37.466Z,5.15
2022-09-01T18:59:21.829Z,5.45
2022-09-01T19:01:55.374Z,4.32
2022-09-01T19:04:31.425Z,3.67
2022-09-01T19:07:08.976Z,3.38
2022-09-01T19:09:43.663Z,2.83
2022-09-01T19:12:21.621Z,4.45
2022-09-01T19:14:59.383Z,4.22
2022-09-01T19:17:52.463Z,4.40
2022-09-01T19:20:26.721Z,2.75
2022-09-01T19:23:01.761Z,2.88
2022-09-01T19:25:37.462Z,2.42
2022-09-01T19:28:15.083Z,3.88
2022-09-01T19:30:47.979Z,2.63
2022-09-01T19:33:20.115Z,3.13
2022-09-01T19:35:50.490Z,2.95
2022-09-01T19:38:27.372Z,2.42
2022-09-01T19:41:02.278Z,5.13
2022-09-01T19:43:37.155Z,3.30
2022-09-01T19:46:18.500Z,3.15
2022-09-01T19:48:51.710Z,3.58
2022-09-01T19:51:25.616Z,3.92
2022-09-01T19:54:01.228Z,4.45
2022-09-01T19:56:35.365Z,3.85
2022-09-01T19:59:13.559Z,1.92
2022-09-01T20:01:47.211Z,1.77
2022-09-01T20:04:24.696Z,2.55
2022-09-01T20:06:59.126Z,2.78
2022-09-01T20:09:36.642Z,2.80
2022-09-01T20:12:14.420Z,2.90
2022-09-01T20:15:04.794Z,2.30
2022-09-01T20:17:38.699Z,3.30
2022-09-01T20:20:09.560Z,5.05
2022-09-01T20:22:46.319Z,2.88
2022-09-01T20:25:17.904Z,2.72
2022-09-01T20:27:56.474Z,4.53
2022-09-01T20:30:28.101Z,3.00
2022-09-01T20:33:02.364Z,3.35
2022-09-01T20:35:39.748Z,2.83
2022-09-01T20:38:29.713Z,5.53
2022-09-01T20:40:57.881Z,1.88
2022-09-01T20:43:31.243Z,2.00
2022-09-01T20:45:59.187Z,5.22
2022-09-01T20:48:30.397Z,3.20
2022-09-01T20:51:03.618Z,3.03
2022-09-01T20:53:54.213Z,5.68
2022-09-01T20:56:30.222Z,3.80
2022-09-01T21:01:38.077Z,2.33
2022-09-01T21:04:14.497Z,1.05
2022-09-01T21:09:14.840Z,4.00
2022-09-01T21:11:48.738Z,2.08
2022-09-01T21:14:34.671Z,2.75
2022-09-01T21:17:13.559Z,2.53
2022-09-01T21:19:49.792Z,2.33
2022-09-01T21:22:22.165Z,2.42
2022-09-01T21:24:51.630Z,3.88
2022-09-01T21:27:22.722Z,3.38
2022-09-01T21:29:56.614Z,3.10
2022-09-01T21:32:24.291Z,2.05
2022-09-01T21:34:53.065Z,1.10
2022-09-01T21:37:23.631Z,4.28
2022-09-01T21:39:53.910Z,1.30
2022-09-01T21:42:23.513Z,3.00
2022-09-01T21:44:51.966Z,4.45
2022-09-01T21:47:22.624Z,3.10
2022-09-01T21:49:50.330Z,1.42
2022-09-01T21:52:18.205Z,7.20
2022-09-01T21:54:46.119Z,1.60
2022-09-01T21:57:15.395Z,1.95
2022-09-01T21:59:43.139Z,2.75
2022-09-01T22:02:11.012Z,4.07
2022-09-01T22:04:39.783Z,3.65
2022-09-01T22:07:18.618Z,3.33
2022-09-01T22:09:47.411Z,2.72
2022-09-01T22:12:16.485Z,1.52
2022-09-01T22:14:44.162Z,2.72
2022-09-01T22:17:11.875Z,2.90
2022-09-01T22:19:39.578Z,2.50
2022-09-01T22:22:08.256Z,3.17
2022-09-01T22:24:35.926Z,5.57
2022-09-01T22:27:03.650Z,3.40
2022-09-01T22:29:32.732Z,1.67
2022-09-01T22:32:01.254Z,2.15
2022-09-01T22:34:28.925Z,5.30
2022-09-01T22:36:56.868Z,1.92
2022-09-01T22:39:25.192Z,1.88
2022-09-01T22:41:53.872Z,3.83
2022-09-01T22:44:21.705Z,2.45
2022-09-01T22:46:50.901Z,2.50
2022-09-01T22:49:18.574Z,1.63
2022-09-01T22:51:46.359Z,2.88
2022-09-01T22:54:14.415Z,4.22
2022-09-01T22:56:42.718Z,1.52
2022-09-01T22:59:13.429Z,1.27
2022-09-01T23:01:44.179Z,3.35
2022-09-01T23:04:14.471Z,2.13
2022-09-01T23:06:44.904Z,4.72
2022-09-01T23:09:13.480Z,2.10
2022-09-01T23:11:41.469Z,2.05
2022-09-01T23:14:09.224Z,3.05
2022-09-01T23:16:37.214Z,2.85
2022-09-01T23:19:06.091Z,3.13
2022-09-01T23:21:37.168Z,2.72
2022-09-01T23:24:06.566Z,4.32
2022-09-01T23:26:34.955Z,4.00
2022-09-01T23:29:03.287Z,7.63
2022-09-01T23:31:34.651Z,6.93
2022-09-01T23:34:02.771Z,10.45
2022-09-01T23:36:30.823Z,4.97
2022-09-01T23:39:00.592Z,5.35
2022-09-01T23:41:31.128Z,3.90
2022-09-01T23:44:01.329Z,3.85
2022-09-01T23:46:31.413Z,4.93
2022-09-01T23:48:59.683Z,5.25
2022-09-01T23:51:28.206Z,6.13
2022-09-01T23:53:55.926Z,7.43
2022-09-01T23:56:27.639Z,6.38
2022-09-01T23:58:55.568Z,8.15
